createdAt,value
2023-05-09T00:02:07.901Z,13.79
2023-05-09T00:04:35.277Z,13.80
2023-05-09T00:07:01.891Z,13.80
2023-05-09T00:09:28.401Z,13.79
2023-05-09T00:11:54.865Z,13.74
2023-05-09T00:14:21.838Z,13.76
2023-05-09T00:16:48.390Z,13.78
2023-05-09T00:19:14.928Z,13.80
2023-05-09T00:21:41.445Z,13.79
2023-05-09T00:24:07.999Z,13.78
2023-05-09T00:26:34.469Z,13.80
2023-05-09T00:29:00.987Z,13.80
2023-05-09T00:31:27.992Z,13.80
2023-05-09T00:33:54.631Z,13.79
2023-05-09T00:36:21.331Z,13.78
2023-05-09T00:38:47.827Z,13.78
2023-05-09T00:41:14.576Z,13.79
2023-05-09T00:43:41.098Z,13.74
2023-05-09T00:46:07.812Z,13.63
2023-05-09T00:48:35.564Z,13.61
2023-05-09T00:51:02.327Z,13.63
2023-05-09T00:53:28.868Z,13.62
2023-05-09T00:55:56.703Z,13.65
2023-05-09T00:58:23.842Z,13.69
2023-05-09T01:00:50.634Z,13.75
2023-05-09T01:03:17.835Z,13.77
2023-05-09T01:05:58.442Z,13.80
2023-05-09T01:08:45.392Z,13.82
2023-05-09T01:11:21.187Z,13.81
2023-05-09T01:14:23.086Z,13.74
2023-05-09T01:17:00.770Z,13.76
2023-05-09T01:19:30.460Z,13.78
2023-05-09T01:21:59.448Z,13.77
2023-05-09T01:25:05.201Z,13.81
2023-05-09T01:27:48.487Z,13.77
2023-05-09T01:30:16.853Z,13.76
2023-05-09T01:32:43.935Z,13.76
2023-05-09T01:35:14.510Z,13.74
2023-05-09T01:37:43.342Z,13.69
2023-05-09T01:40:21.721Z,13.64
2023-05-09T01:42:56.900Z,13.60
2023-05-09T01:45:24.892Z,13.56
2023-05-09T01:47:52.059Z,13.57
2023-05-09T01:50:20.081Z,13.59
2023-05-09T01:52:49.329Z,13.57
2023-05-09T01:55:17.541Z,13.56
2023-05-09T01:57:45.357Z,13.54
2023-05-09T02:00:13.728Z,13.54
2023-05-09T02:02:41.553Z,13.53
2023-05-09T02:05:10.243Z,13.51
2023-05-09T02:07:37.185Z,13.48
2023-05-09T02:10:05.016Z,13.45
2023-05-09T02:12:31.492Z,13.43
2023-05-09T02:14:58.041Z,13.42
2023-05-09T02:17:24.715Z,13.39
2023-05-09T02:19:51.224Z,13.39
2023-05-09T02:22:17.994Z,13.43
2023-05-09T02:24:47.250Z,13.45
2023-05-09T02:27:15.401Z,13.42
2023-05-09T02:29:46.747Z,13.38
2023-05-09T02:32:23.135Z,13.34
2023-05-09T02:34:52.237Z,13.30
2023-05-09T02:37:19.114Z,13.28
2023-05-09T02:39:45.996Z,13.26
2023-05-09T02:42:15.925Z,13.25
2023-05-09T02:44:42.416Z,13.24
2023-05-09T02:47:09.141Z,13.23
2023-05-09T02:49:35.596Z,13.24
2023-05-09T02:52:02.080Z,13.22
2023-05-09T02:54:28.902Z,13.24
2023-05-09T02:56:55.409Z,13.22
2023-05-09T02:59:21.900Z,13.19
2023-05-09T03:01:48.463Z,13.20
2023-05-09T03:04:15.040Z,13.19
2023-05-09T03:06:41.831Z,13.18
2023-05-09T03:09:08.310Z,13.13
2023-05-09T03:11:36.790Z,13.11
2023-05-09T03:14:04.063Z,13.10
2023-05-09T03:16:30.984Z,13.05
2023-05-09T03:18:57.541Z,13.03
2023-05-09T03:21:24.194Z,13.04
2023-05-09T03:23:50.682Z,13.05
2023-05-09T03:26:17.162Z,13.07
2023-05-09T03:28:43.749Z,13.09
2023-05-09T03:31:10.218Z,13.11
2023-05-09T03:33:36.869Z,13.12
2023-05-09T03:36:03.480Z,13.14
2023-05-09T03:38:30.033Z,13.14
2023-05-09T03:40:56.570Z,13.14
2023-05-09T03:43:23.039Z,13.17
2023-05-09T03:45:49.497Z,13.22
2023-05-09T03:48:16.204Z,13.25
2023-05-09T03:50:42.708Z,13.25
2023-05-09T03:53:09.914Z,13.26
2023-05-09T03:55:36.382Z,13.28
2023-05-09T03:58:03.567Z,13.25
2023-05-09T04:00:30.097Z,13.26
2023-05-09T04:02:56.805Z,13.25
2023-05-09T04:05:23.448Z,13.27
2023-05-09T04:07:49.898Z,13.26
2023-05-09T04:10:16.358Z,13.25
2023-05-09T04:12:42.812Z,13.25
2023-05-09T04:15:09.934Z,13.25
2023-05-09T04:17:36.559Z,13.26
2023-05-09T04:20:03.787Z,13.28
2023-05-09T04:22:30.273Z,13.30
2023-05-09T04:24:57.317Z,13.31
2023-05-09T04:27:23.820Z,13.33
2023-05-09T04:29:50.403Z,13.33
2023-05-09T04:32:17.597Z,13.34
2023-05-09T04:34:44.180Z,13.36
2023-05-09T04:37:11.120Z,13.36
2023-05-09T04:39:37.643Z,13.37
2023-05-09T04:42:04.357Z,13.40
2023-05-09T04:44:31.274Z,13.43
2023-05-09T04:46:58.155Z,13.44
2023-05-09T04:49:24.907Z,13.44
2023-05-09T04:51:51.727Z,13.45
2023-05-09T04:54:18.348Z,13.47
2023-05-09T04:56:44.881Z,13.45
2023-05-09T04:59:11.368Z,13.44
2023-05-09T05:01:37.903Z,13.47
2023-05-09T05:04:04.813Z,13.49
2023-05-09T05:06:32.041Z,13.50
2023-05-09T05:08:58.531Z,13.53
2023-05-09T05:11:25.082Z,13.53
2023-05-09T05:13:51.594Z,13.56
2023-05-09T05:16:18.128Z,13.62
2023-05-09T05:18:44.649Z,13.65
2023-05-09T05:21:11.159Z,13.67
2023-05-09T05:23:38.004Z,13.69
2023-05-09T05:26:04.546Z,13.72
2023-05-09T05:28:31.077Z,13.77
2023-05-09T05:30:57.608Z,13.80
2023-05-09T05:33:24.144Z,13.82
2023-05-09T05:35:51.630Z,13.88
2023-05-09T05:38:18.229Z,13.92
2023-05-09T05:40:44.706Z,13.97
2023-05-09T05:43:11.240Z,14.02
2023-05-09T05:45:37.818Z,14.09
2023-05-09T05:48:04.662Z,14.15
2023-05-09T05:50:31.172Z,14.19
2023-05-09T05:52:57.626Z,14.26
2023-05-09T05:55:24.094Z,14.29
2023-05-09T05:57:50.543Z,14.35
2023-05-09T06:00:17.362Z,14.38
2023-05-09T06:02:44.697Z,14.40
2023-05-09T06:05:11.977Z,14.43
2023-05-09T06:07:40.173Z,14.45
2023-05-09T06:10:08.055Z,14.47
2023-05-09T06:12:34.547Z,14.45
2023-05-09T06:15:01.008Z,14.45
2023-05-09T06:17:28.190Z,14.44
2023-05-09T06:19:54.729Z,14.46
2023-05-09T06:22:21.309Z,14.47
2023-05-09T06:24:48.557Z,14.49
2023-05-09T06:27:15.068Z,14.49
2023-05-09T06:29:41.594Z,14.49
2023-05-09T06:32:08.074Z,14.48
2023-05-09T06:34:34.680Z,14.47
2023-05-09T06:37:01.261Z,14.45
2023-05-09T06:39:27.823Z,14.48
2023-05-09T06:41:54.392Z,14.49
2023-05-09T06:44:20.930Z,14.47
2023-05-09T06:46:47.532Z,14.51
2023-05-09T06:49:14.203Z,14.55
2023-05-09T06:51:40.786Z,14.54
2023-05-09T06:54:07.478Z,14.53
2023-05-09T06:56:34.079Z,14.55
2023-05-09T06:59:00.619Z,14.56
2023-05-09T07:01:27.211Z,14.59
2023-05-09T07:03:53.755Z,14.62
2023-05-09T07:06:20.691Z,14.62
2023-05-09T07:08:47.238Z,14.62
2023-05-09T07:11:13.741Z,14.64
2023-05-09T07:13:40.256Z,14.65
2023-05-09T07:16:06.867Z,14.68
2023-05-09T07:18:33.384Z,14.72
2023-05-09T07:20:59.848Z,14.73
2023-05-09T07:23:27.104Z,14.75
2023-05-09T07:25:59.826Z,14.76
2023-05-09T07:28:26.432Z,14.79
2023-05-09T07:30:55.336Z,14.82
2023-05-09T07:33:21.972Z,14.80
2023-05-09T07:35:48.501Z,14.77
2023-05-09T07:38:15.056Z,14.73
2023-05-09T07:40:41.574Z,14.76
2023-05-09T07:43:08.107Z,14.77
2023-05-09T07:45:34.851Z,14.79
2023-05-09T07:48:01.574Z,14.84
2023-05-09T07:50:28.102Z,14.87
2023-05-09T07:52:55.650Z,14.89
2023-05-09T07:55:22.273Z,14.86
2023-05-09T07:57:48.768Z,14.89
2023-05-09T08:00:16.416Z,14.86
2023-05-09T08:02:43.124Z,14.82
2023-05-09T08:05:11.676Z,14.84
2023-05-09T08:07:38.385Z,14.83
2023-05-09T08:10:05.380Z,14.80
2023-05-09T08:12:32.313Z,14.80
2023-05-09T08:14:58.788Z,14.78
2023-05-09T08:17:25.454Z,14.77
2023-05-09T08:19:52.172Z,14.80
2023-05-09T08:22:19.580Z,14.85
2023-05-09T08:24:47.431Z,14.89
2023-05-09T08:27:15.482Z,14.90
2023-05-09T08:29:42.789Z,14.89
2023-05-09T08:32:09.941Z,14.85
2023-05-09T08:34:36.607Z,14.84
2023-05-09T08:37:04.391Z,14.89
2023-05-09T08:39:31.394Z,14.92
2023-05-09T08:42:02.347Z,14.93
2023-05-09T08:44:30.429Z,14.93
2023-05-09T08:47:01.404Z,14.85
2023-05-09T08:49:28.781Z,14.87
2023-05-09T08:51:56.474Z,14.82
2023-05-09T08:54:23.802Z,14.75
2023-05-09T08:56:51.057Z,14.75
2023-05-09T08:59:18.897Z,14.73
2023-05-09T09:01:46.003Z,14.77
2023-05-09T09:04:12.782Z,14.82
2023-05-09T09:06:40.526Z,14.88
2023-05-09T09:09:11.483Z,14.87
2023-05-09T09:11:40.396Z,14.88
2023-05-09T09:14:15.625Z,14.86
2023-05-09T09:16:44.401Z,14.88
2023-05-09T09:19:13.445Z,14.87
2023-05-09T09:21:45.596Z,14.87
2023-05-09T09:24:19.623Z,14.88
2023-05-09T09:26:48.388Z,14.79
2023-05-09T09:29:15.770Z,14.77
2023-05-09T09:31:46.606Z,14.73
2023-05-09T09:34:19.194Z,14.69
2023-05-09T09:36:46.992Z,14.73
2023-05-09T09:39:14.412Z,14.76
2023-05-09T09:41:41.223Z,14.78
2023-05-09T09:44:16.531Z,14.77
2023-05-09T09:46:51.246Z,14.80
2023-05-09T09:49:24.031Z,14.83
2023-05-09T09:51:59.591Z,14.84
2023-05-09T09:54:27.798Z,14.87
2023-05-09T09:56:55.286Z,14.80
2023-05-09T09:59:25.067Z,14.74
2023-05-09T10:02:08.232Z,14.72
2023-05-09T10:04:37.494Z,14.66
2023-05-09T10:07:06.241Z,14.59
2023-05-09T10:09:34.682Z,14.56
2023-05-09T10:12:06.458Z,14.59
2023-05-09T10:14:35.576Z,14.62
2023-05-09T10:17:04.395Z,14.63
2023-05-09T10:19:31.909Z,14.77
2023-05-09T10:22:02.733Z,14.85
2023-05-09T10:24:39.721Z,14.87
2023-05-09T10:27:10.643Z,14.91
2023-05-09T10:29:50.052Z,14.84
2023-05-09T10:32:23.574Z,14.87
2023-05-09T10:34:54.512Z,14.87
2023-05-09T10:37:22.002Z,14.85
2023-05-09T10:39:53.164Z,14.81
2023-05-09T10:42:20.261Z,14.77
2023-05-09T10:44:47.829Z,14.73
2023-05-09T10:47:15.500Z,14.71
2023-05-09T10:49:44.254Z,14.74
2023-05-09T10:52:10.969Z,14.79
2023-05-09T10:54:37.928Z,14.83
2023-05-09T10:57:06.395Z,14.91
2023-05-09T10:59:43.432Z,14.91
2023-05-09T11:02:15.662Z,14.85
2023-05-09T11:04:42.305Z,14.82
2023-05-09T11:07:26.340Z,14.83
2023-05-09T11:10:07.072Z,14.76
2023-05-09T11:12:33.533Z,14.73
2023-05-09T11:15:08.127Z,14.74
2023-05-09T11:17:38.732Z,14.80
2023-05-09T11:20:06.506Z,14.85
2023-05-09T11:22:43.824Z,14.89
2023-05-09T11:25:15.091Z,14.90
2023-05-09T11:27:52.152Z,14.90
2023-05-09T11:30:20.618Z,14.84
2023-05-09T11:32:51.332Z,14.83
2023-05-09T11:35:22.925Z,14.86
2023-05-09T11:37:52.409Z,14.85
2023-05-09T11:40:20.868Z,14.84
2023-05-09T11:42:57.695Z,14.82
2023-05-09T11:45:30.606Z,14.78
2023-05-09T11:47:57.708Z,14.76
2023-05-09T11:50:24.689Z,14.77
2023-05-09T11:52:51.306Z,14.77
2023-05-09T11:55:22.892Z,14.77
2023-05-09T11:57:51.731Z,14.78
2023-05-09T12:00:23.260Z,14.74
2023-05-09T12:02:51.265Z,14.69
2023-05-09T12:05:19.821Z,14.66
2023-05-09T12:07:47.606Z,14.64
2023-05-09T12:10:16.017Z,14.65
2023-05-09T12:12:45.479Z,14.66
2023-05-09T12:15:13.714Z,14.56
2023-05-09T12:17:41.785Z,14.58
2023-05-09T12:20:08.988Z,14.57
2023-05-09T12:22:37.508Z,14.56
2023-05-09T12:25:09.627Z,14.58
2023-05-09T12:27:37.784Z,14.59
2023-05-09T12:30:10.227Z,14.72
2023-05-09T12:32:40.680Z,14.76
2023-05-09T12:35:09.498Z,14.79
2023-05-09T12:37:36.473Z,14.78
2023-05-09T12:40:12.800Z,14.75
2023-05-09T12:42:43.176Z,14.72
2023-05-09T12:45:10.461Z,14.68
2023-05-09T12:47:39.168Z,14.66
2023-05-09T12:50:07.418Z,14.64
2023-05-09T12:52:36.691Z,14.66
2023-05-09T12:55:09.582Z,14.72
2023-05-09T12:57:36.096Z,14.82
2023-05-09T13:00:06.437Z,14.88
2023-05-09T13:02:38.482Z,14.93
2023-05-09T13:05:17.830Z,14.91
2023-05-09T13:07:45.958Z,14.97
2023-05-09T13:10:18.414Z,15.06
2023-05-09T13:12:48.105Z,15.08
2023-05-09T13:15:22.456Z,15.06
2023-05-09T13:17:51.701Z,15.08
2023-05-09T13:20:19.359Z,15.09
2023-05-09T13:22:46.632Z,15.12
2023-05-09T13:25:13.675Z,15.13
2023-05-09T13:27:40.239Z,15.14
2023-05-09T13:30:10.003Z,15.14
2023-05-09T13:32:36.724Z,15.15
2023-05-09T13:35:06.527Z,15.18
2023-05-09T13:37:33.519Z,15.22
2023-05-09T13:40:00.037Z,15.29
2023-05-09T13:42:27.519Z,15.36
2023-05-09T13:44:54.125Z,15.38
2023-05-09T13:47:21.100Z,15.35
2023-05-09T13:49:47.746Z,15.31
2023-05-09T13:52:16.114Z,15.19
2023-05-09T13:54:42.661Z,15.10
2023-05-09T13:57:09.487Z,15.01
2023-05-09T13:59:36.303Z,14.98
2023-05-09T14:02:03.356Z,14.94
2023-05-09T14:04:34.107Z,14.90
2023-05-09T14:07:01.396Z,14.91
2023-05-09T14:09:28.847Z,14.90
2023-05-09T14:11:56.690Z,14.90
2023-05-09T14:14:25.494Z,14.86
2023-05-09T14:16:52.140Z,14.82
2023-05-09T14:19:18.768Z,14.85
2023-05-09T14:21:48.856Z,14.93
2023-05-09T14:24:16.466Z,14.98
2023-05-09T14:26:43.802Z,15.04
2023-05-09T14:29:10.939Z,15.07
2023-05-09T14:31:37.602Z,15.00
2023-05-09T14:34:05.226Z,14.95
2023-05-09T14:36:32.462Z,14.94
2023-05-09T14:38:58.973Z,14.92
2023-05-09T14:41:25.505Z,14.91
2023-05-09T14:43:52.434Z,14.93
2023-05-09T14:46:19.136Z,14.95
2023-05-09T14:48:45.803Z,14.96
2023-05-09T14:51:12.319Z,15.03
2023-05-09T14:53:42.073Z,14.99
2023-05-09T14:56:11.120Z,14.98
2023-05-09T14:58:37.786Z,14.99
2023-05-09T15:01:04.508Z,15.01
2023-05-09T15:03:31.361Z,15.02
2023-05-09T15:05:58.701Z,14.98
2023-05-09T15:08:25.938Z,14.96
2023-05-09T15:10:52.870Z,14.92
2023-05-09T15:13:19.520Z,14.92
2023-05-09T15:15:46.141Z,14.87
2023-05-09T15:18:13.393Z,14.86
2023-05-09T15:20:39.959Z,14.87
2023-05-09T15:23:07.871Z,14.83
2023-05-09T15:25:34.705Z,14.85
2023-05-09T15:28:01.241Z,14.87
2023-05-09T15:30:28.180Z,14.91
2023-05-09T15:32:54.722Z,14.97
2023-05-09T15:35:21.392Z,14.95
2023-05-09T15:37:47.852Z,14.98
2023-05-09T15:40:14.687Z,15.02
2023-05-09T15:42:41.506Z,15.04
2023-05-09T15:45:08.531Z,15.01
2023-05-09T15:47:35.856Z,14.97
2023-05-09T15:50:02.389Z,14.95
2023-05-09T15:52:29.158Z,14.99
2023-05-09T15:54:56.009Z,14.98
2023-05-09T15:57:23.105Z,14.93
2023-05-09T15:59:49.630Z,14.90
2023-05-09T16:02:16.244Z,14.88
2023-05-09T16:04:43.937Z,14.85
2023-05-09T16:07:10.867Z,14.81
2023-05-09T16:09:37.907Z,14.78
2023-05-09T16:12:04.787Z,14.71
2023-05-09T16:14:31.390Z,14.62
2023-05-09T16:16:57.907Z,14.53
2023-05-09T16:19:24.520Z,14.46
2023-05-09T16:21:51.129Z,14.48
2023-05-09T16:24:17.657Z,14.53
2023-05-09T16:26:44.184Z,14.56
2023-05-09T16:29:11.244Z,14.58
2023-05-09T16:31:37.879Z,14.59
2023-05-09T16:34:04.489Z,14.58
2023-05-09T16:36:33.638Z,14.58
2023-05-09T16:39:00.229Z,14.59
2023-05-09T16:41:27.133Z,14.58
2023-05-09T16:43:53.804Z,14.64
2023-05-09T16:46:20.686Z,14.65
2023-05-09T16:48:47.370Z,14.64
2023-05-09T16:51:13.937Z,14.64
2023-05-09T16:53:41.222Z,14.64
2023-05-09T16:56:07.958Z,14.62
2023-05-09T16:58:36.576Z,14.66
2023-05-09T17:01:03.821Z,14.68
2023-05-09T17:03:31.099Z,14.66
2023-05-09T17:05:57.624Z,14.64
2023-05-09T17:08:24.192Z,14.64
2023-05-09T17:10:50.709Z,14.65
2023-05-09T17:13:17.413Z,14.67
2023-05-09T17:15:44.320Z,14.68
2023-05-09T17:18:12.264Z,14.68
2023-05-09T17:20:40.808Z,14.67
2023-05-09T17:23:07.384Z,14.64
2023-05-09T17:25:33.886Z,14.60
2023-05-09T17:28:00.395Z,14.55
2023-05-09T17:30:27.434Z,14.48
2023-05-09T17:32:54.056Z,14.46
2023-05-09T17:35:22.456Z,14.42
2023-05-09T17:37:48.959Z,14.41
2023-05-09T17:40:16.037Z,14.35
2023-05-09T17:42:43.017Z,14.31
2023-05-09T17:45:11.650Z,14.34
2023-05-09T17:47:39.041Z,14.33
2023-05-09T17:50:09.773Z,14.33
2023-05-09T17:52:37.209Z,14.33
2023-05-09T17:55:04.053Z,14.34
2023-05-09T17:57:30.880Z,14.29
2023-05-09T17:59:58.261Z,14.30
2023-05-09T18:02:25.309Z,14.28
2023-05-09T18:04:52.388Z,14.24
2023-05-09T18:07:19.017Z,14.24
2023-05-09T18:09:46.501Z,14.22
2023-05-09T18:12:13.004Z,14.22
2023-05-09T18:14:40.063Z,14.24
2023-05-09T18:17:09.456Z,14.22
2023-05-09T18:19:35.991Z,14.20
2023-05-09T18:22:03.238Z,14.17
2023-05-09T18:24:29.836Z,14.13
2023-05-09T18:26:57.118Z,14.14
2023-05-09T18:29:23.660Z,14.14
2023-05-09T18:31:50.586Z,14.11
2023-05-09T18:34:17.355Z,14.08
2023-05-09T18:36:43.860Z,14.06
2023-05-09T18:39:12.017Z,14.05
2023-05-09T18:41:38.495Z,14.08
2023-05-09T18:44:05.320Z,14.04
2023-05-09T18:46:33.697Z,14.05
2023-05-09T18:49:01.159Z,14.01
2023-05-09T18:51:27.680Z,13.99
2023-05-09T18:53:54.175Z,14.00
2023-05-09T18:56:22.219Z,14.01
2023-05-09T18:58:52.133Z,14.02
2023-05-09T19:01:19.149Z,13.99
2023-05-09T19:03:46.371Z,14.00
2023-05-09T19:06:14.937Z,14.02
2023-05-09T19:08:43.512Z,14.03
2023-05-09T19:11:11.685Z,14.04
2023-05-09T19:13:40.069Z,14.04
2023-05-09T19:16:08.176Z,14.03
2023-05-09T19:18:34.988Z,14.02
2023-05-09T19:21:01.696Z,14.01
2023-05-09T19:23:28.191Z,13.99
2023-05-09T19:25:55.336Z,13.95
2023-05-09T19:28:23.073Z,13.91
2023-05-09T19:30:52.928Z,13.90
2023-05-09T19:33:19.660Z,13.89
2023-05-09T19:35:46.223Z,13.80
2023-05-09T19:38:12.873Z,13.79
2023-05-09T19:40:40.202Z,13.75
2023-05-09T19:43:06.958Z,13.71
2023-05-09T19:45:33.638Z,13.70
2023-05-09T19:48:00.694Z,13.67
2023-05-09T19:50:27.396Z,13.67
2023-05-09T19:52:53.958Z,13.60
2023-05-09T19:55:20.611Z,13.46
2023-05-09T19:57:47.313Z,13.49
2023-05-09T20:00:14.643Z,13.48
2023-05-09T20:02:41.497Z,13.47
2023-05-09T20:05:08.682Z,13.48
2023-05-09T20:07:35.137Z,13.48
2023-05-09T20:10:01.684Z,13.49
2023-05-09T20:12:30.182Z,13.49
2023-05-09T20:14:57.099Z,13.48
2023-05-09T20:17:23.843Z,13.45
2023-05-09T20:19:50.917Z,13.44
2023-05-09T20:22:19.543Z,13.41
2023-05-09T20:24:47.530Z,13.37
2023-05-09T20:27:14.312Z,13.34
2023-05-09T20:29:42.269Z,13.32
2023-05-09T20:32:09.212Z,13.27
2023-05-09T20:34:36.108Z,13.22
2023-05-09T20:37:02.974Z,13.17
2023-05-09T20:39:29.764Z,13.17
2023-05-09T20:41:58.792Z,13.09
2023-05-09T20:44:30.746Z,13.07
2023-05-09T20:47:00.823Z,13.10
2023-05-09T20:49:30.731Z,13.13
2023-05-09T20:52:01.940Z,13.11
2023-05-09T20:54:29.097Z,13.09
2023-05-09T20:56:55.929Z,13.07
2023-05-09T20:59:27.297Z,13.05
2023-05-09T21:01:55.672Z,13.04
2023-05-09T21:04:26.911Z,13.05
2023-05-09T21:06:53.758Z,13.06
2023-05-09T21:09:20.414Z,13.05
2023-05-09T21:11:47.035Z,13.08
2023-05-09T21:14:13.618Z,13.10
2023-05-09T21:16:40.346Z,13.11
2023-05-09T21:19:09.233Z,13.07
2023-05-09T21:21:35.794Z,13.04
2023-05-09T21:24:04.326Z,13.03
2023-05-09T21:26:30.927Z,13.02
2023-05-09T21:28:57.555Z,13.07
2023-05-09T21:31:24.120Z,13.03
2023-05-09T21:33:50.923Z,13.03
2023-05-09T21:36:17.639Z,13.02
2023-05-09T21:38:44.150Z,13.01
2023-05-09T21:41:10.810Z,13.00
2023-05-09T21:43:37.722Z,13.00
2023-05-09T21:46:05.809Z,12.98
2023-05-09T21:48:32.735Z,12.98
2023-05-09T21:51:03.148Z,12.98
2023-05-09T21:53:29.743Z,12.97
2023-05-09T21:55:56.268Z,12.98
2023-05-09T21:58:22.726Z,13.00
2023-05-09T22:00:49.304Z,12.94
2023-05-09T22:03:15.864Z,12.97
2023-05-09T22:05:42.486Z,12.96
2023-05-09T22:08:09.154Z,12.97
2023-05-09T22:10:37.807Z,12.93
2023-05-09T22:13:04.557Z,12.92
2023-05-09T22:15:31.241Z,12.93
2023-05-09T22:17:58.009Z,12.93
2023-05-09T22:20:24.711Z,12.91
2023-05-09T22:22:51.332Z,12.93
2023-05-09T22:25:17.961Z,12.94
2023-05-09T22:27:44.495Z,12.93
2023-05-09T22:30:12.438Z,12.91
2023-05-09T22:32:39.434Z,12.88
2023-05-09T22:35:06.816Z,12.88
2023-05-09T22:37:33.302Z,12.88
2023-05-09T22:40:01.475Z,12.86
2023-05-09T22:42:29.370Z,12.84
2023-05-09T22:44:55.986Z,12.85
2023-05-09T22:47:22.520Z,12.83
2023-05-09T22:49:50.368Z,12.80
2023-05-09T22:52:17.138Z,12.80
2023-05-09T22:54:43.798Z,12.80
2023-05-09T22:57:10.690Z,12.78
2023-05-09T22:59:37.200Z,12.74
2023-05-09T23:02:04.751Z,12.73
2023-05-09T23:04:31.341Z,12.72
2023-05-09T23:06:57.820Z,12.68
2023-05-09T23:09:24.461Z,12.68
2023-05-09T23:11:51.581Z,12.66
2023-05-09T23:14:18.088Z,12.63
2023-05-09T23:16:44.582Z,12.62
2023-05-09T23:19:11.038Z,12.60
2023-05-09T23:21:37.658Z,12.59
2023-05-09T23:24:04.448Z,12.57
2023-05-09T23:26:30.923Z,12.58
2023-05-09T23:28:57.471Z,12.55
2023-05-09T23:31:24.109Z,12.51
2023-05-09T23:33:50.671Z,12.49
2023-05-09T23:36:17.302Z,12.46
2023-05-09T23:38:43.856Z,12.44
2023-05-09T23:41:10.462Z,12.42
2023-05-09T23:43:37.877Z,12.42
2023-05-09T23:46:04.524Z,12.43
2023-05-09T23:48:31.178Z,12.45
2023-05-09T23:50:57.700Z,12.44
2023-05-09T23:53:24.159Z,12.42
2023-05-09T23:55:50.850Z,12.39
2023-05-09T23:58:17.332Z,12.41
